Terminal Aerodrome Forecast
Issued by NWS Cleveland, OH

Home | Current Version | Previous Version | Graphics & Text | Print | Product List | Glossary On
Versions: 1 2 3 4 5 6 7 8 9 10 11 12 13 14 15 16 17 18 19 20 21 22 23
000
FTUS41 KCLE 231400 AAA
TAFMFD
TAF AMD
KMFD 231420Z 2314/2412 16012KT 6SM BR OVC005
     FM231700 16010KT 5SM BR VCSH OVC004
     FM240300 15008KT 4SM -SHRA BR OVC004=

USA.gov is the U.S. government's official web portal to all federal, state and local government web resources and services.